PWSweather.com
Personal Weather Stations
Station Observations
KNYSYRAC2
Fairmount Hills, Fairmount, NY 13219

Fairmount HillsFairmount, NY 13219

Lat: 43.03602, Lon: -76.247151

Elevation: 663

Station Type: Ambient Weather WS-2080

http://weather.cerchia.com

High Low Average
Temperature 62.1°F16.7°C 48.5°F9.2°C 53.9°F12.2°C
Dew Point 54.7°F12.6°C 39.5°F4.2°C 48.3°F9.1°C
Winds 4.4 mph 7.1 kmh Calm Calm 2.0 mph WSW3.2 kmh WSW
Wind Gusts 12.3 mph19.8 kmh -- 7.0 mph11.3 kmh
Humidity 97% 59% 82%
Pressure 30.11 in1019.6 mb 29.97 in1014.9 mb -
Precipitation 0.09 in2.3 mm - -
Hour Temp Dew Point Humidity Winds Wind Gusts Pressure Precip Precip Rate Daily Precip Total
12:00 AM 57.5°F14.2°C 34.6°F1.4°C 42% 3.4 mph W5.5 kmh W 9.5 mph15.3 kmh 30.13 in1020.3 mb 0.00 in0.0 mm 0.00 in0.0 mm 0.00 in0.0 mm
12:15 AM 56.4°F13.6°C 36.4°F2.4°C 47% 3.6 mph SSW5.8 kmh SSW 12.3 mph19.8 kmh 30.13 in1020.3 mb 0.01 in0.3 mm 0.04 in1.0 mm 0.01 in0.3 mm
12:30 AM 54.9°F12.7°C 38.1°F3.4°C 53% 2.7 mph SW4.3 kmh SW 10.3 mph16.6 kmh 30.13 in1020.3 mb 0.01 in0.3 mm 0.00 in0.0 mm 0.01 in0.3 mm
12:45 AM 54.2°F12.3°C 39.3°F4.1°C 57% 1.6 mph SW2.6 kmh SW 6.7 mph10.8 kmh 30.11 in1019.6 mb 0.01 in0.3 mm 0.00 in0.0 mm 0.01 in0.3 mm
01:00 AM 53.5°F11.9°C 39.5°F4.2°C 59% 0.6 mph SW1.0 kmh SW 3.9 mph6.3 kmh 30.11 in1019.6 mb 0.01 in0.3 mm 0.00 in0.0 mm 0.01 in0.3 mm
01:15 AM 53.0°F11.7°C 39.5°F4.2°C 60% 0.3 mph WNW0.5 kmh WNW 2.8 mph4.5 kmh 30.11 in1019.6 mb 0.00 in0.0 mm 0.00 in0.0 mm 0.01 in0.3 mm
01:30 AM 52.4°F11.3°C 41.0°F5.0°C 65% Calm Calm 0.8 mph1.3 kmh 30.11 in1019.6 mb 0.00 in0.0 mm 0.00 in0.0 mm 0.01 in0.3 mm
01:45 AM 51.7°F10.9°C 41.5°F5.3°C 68% 1.2 mph SW1.9 kmh SW 6.7 mph10.8 kmh 30.10 in1019.3 mb 0.00 in0.0 mm 0.00 in0.0 mm 0.01 in0.3 mm
02:00 AM 51.0°F10.6°C 41.6°F5.3°C 70% 0.3 mph WSW0.5 kmh WSW 3.9 mph6.3 kmh 30.09 in1019.0 mb 0.00 in0.0 mm 0.00 in0.0 mm 0.01 in0.3 mm
02:15 AM 50.3°F10.2°C 42.3°F5.7°C 74% 0.2 mph WSW0.3 kmh WSW 2.8 mph4.5 kmh 30.09 in1019.0 mb 0.00 in0.0 mm 0.00 in0.0 mm 0.01 in0.3 mm
02:30 AM 49.7°F9.8°C 42.8°F6.0°C 77% 0.1 mph E0.2 kmh E 2.8 mph4.5 kmh 30.07 in1018.3 mb 0.01 in0.3 mm 0.04 in1.0 mm 0.02 in0.5 mm
02:45 AM 49.2°F9.6°C 43.3°F6.3°C 80% 0.4 mph N0.6 kmh N 2.0 mph3.2 kmh 30.06 in1017.9 mb 0.01 in0.3 mm 0.00 in0.0 mm 0.02 in0.5 mm
03:00 AM 49.0°F9.4°C 43.8°F6.6°C 82% Calm Calm 2.0 mph3.2 kmh 30.06 in1017.9 mb 0.01 in0.3 mm 0.00 in0.0 mm 0.02 in0.5 mm
03:15 AM 48.8°F9.3°C 44.2°F6.8°C 84% Calm Calm 0.8 mph1.3 kmh 30.05 in1017.6 mb 0.02 in0.5 mm 0.04 in1.0 mm 0.04 in1.0 mm
03:30 AM 48.8°F9.3°C 44.8°F7.1°C 86% Calm Calm 2.0 mph3.2 kmh 30.05 in1017.6 mb 0.02 in0.5 mm 0.00 in0.0 mm 0.05 in1.3 mm
03:45 AM 48.6°F9.2°C 45.3°F7.4°C 88% 0.3 mph SE0.5 kmh SE 2.0 mph3.2 kmh 30.04 in1017.3 mb 0.04 in1.0 mm 0.08 in2.0 mm 0.06 in1.5 mm
04:00 AM 48.5°F9.2°C 45.4°F7.4°C 89% Calm Calm -- 30.03 in1016.9 mb 0.04 in1.0 mm 0.00 in0.0 mm 0.06 in1.5 mm
04:15 AM 48.5°F9.2°C 45.7°F7.6°C 90% 0.1 mph N0.2 kmh N 2.0 mph3.2 kmh 30.03 in1016.9 mb 0.01 in0.3 mm 0.00 in0.0 mm 0.06 in1.5 mm
04:30 AM 48.5°F9.2°C 46.0°F7.8°C 91% 0.7 mph NNW1.1 kmh NNW 2.8 mph4.5 kmh 30.03 in1016.9 mb 0.02 in0.5 mm 0.04 in1.0 mm 0.07 in1.8 mm
04:45 AM 48.8°F9.3°C 46.6°F8.1°C 92% 0.6 mph NNW1.0 kmh NNW 2.8 mph4.5 kmh 30.02 in1016.6 mb 0.01 in0.3 mm 0.00 in0.0 mm 0.07 in1.8 mm
05:00 AM 49.0°F9.4°C 46.8°F8.2°C 92% 0.1 mph N0.2 kmh N 2.0 mph3.2 kmh 30.03 in1016.9 mb 0.01 in0.3 mm 0.00 in0.0 mm 0.07 in1.8 mm
05:15 AM 49.4°F9.7°C 47.1°F8.4°C 92% 1.9 mph W3.1 kmh W 7.5 mph12.1 kmh 30.02 in1016.6 mb 0.01 in0.3 mm 0.00 in0.0 mm 0.07 in1.8 mm
05:30 AM 49.7°F9.8°C 47.8°F8.8°C 93% 2.3 mph SW3.7 kmh SW 7.5 mph12.1 kmh 30.02 in1016.6 mb 0.01 in0.3 mm 0.00 in0.0 mm 0.08 in2.0 mm
05:45 AM 50.1°F10.1°C 48.4°F9.1°C 94% 3.1 mph WSW5.0 kmh WSW 11.5 mph18.5 kmh 30.02 in1016.6 mb 0.01 in0.3 mm 0.00 in0.0 mm 0.08 in2.0 mm
06:00 AM 50.3°F10.2°C 48.6°F9.2°C 94% 3.6 mph SSW5.8 kmh SSW 10.3 mph16.6 kmh 30.02 in1016.6 mb 0.01 in0.3 mm 0.00 in0.0 mm 0.08 in2.0 mm
06:15 AM 50.4°F10.2°C 49.1°F9.5°C 95% 4.0 mph S6.4 kmh S 11.5 mph18.5 kmh 30.02 in1016.6 mb 0.01 in0.3 mm 0.00 in0.0 mm 0.08 in2.0 mm
06:30 AM 50.6°F10.3°C 49.2°F9.6°C 95% 3.3 mph SSW5.3 kmh SSW 8.7 mph14.0 kmh 30.02 in1016.6 mb 0.00 in0.0 mm 0.00 in0.0 mm 0.08 in2.0 mm
06:45 AM 50.8°F10.4°C 49.1°F9.5°C 94% 3.8 mph SW6.1 kmh SW 10.3 mph16.6 kmh 30.03 in1016.9 mb 0.00 in0.0 mm 0.00 in0.0 mm 0.08 in2.0 mm
07:00 AM 51.0°F10.6°C 49.3°F9.6°C 94% 2.9 mph S4.7 kmh S 9.5 mph15.3 kmh 30.03 in1016.9 mb 0.00 in0.0 mm 0.00 in0.0 mm 0.08 in2.0 mm
07:15 AM 51.2°F10.7°C 49.5°F9.7°C 94% 2.5 mph SW4.0 kmh SW 7.5 mph12.1 kmh 30.03 in1016.9 mb 0.00 in0.0 mm 0.00 in0.0 mm 0.08 in2.0 mm
07:30 AM 51.2°F10.7°C 49.5°F9.7°C 94% 2.4 mph SW3.9 kmh SW 6.7 mph10.8 kmh 30.04 in1017.3 mb 0.00 in0.0 mm 0.00 in0.0 mm 0.08 in2.0 mm
07:45 AM 51.2°F10.7°C 49.5°F9.7°C 94% 2.1 mph SW3.4 kmh SW 6.7 mph10.8 kmh 30.03 in1016.9 mb 0.00 in0.0 mm 0.00 in0.0 mm 0.08 in2.0 mm
08:00 AM 51.2°F10.7°C 49.8°F9.9°C 95% 2.2 mph W3.5 kmh W 10.3 mph16.6 kmh 30.04 in1017.3 mb 0.00 in0.0 mm 0.00 in0.0 mm 0.08 in2.0 mm
08:15 AM 51.3°F10.7°C 50.0°F10.0°C 95% 1.8 mph W2.9 kmh W 5.6 mph9.0 kmh 30.03 in1016.9 mb 0.00 in0.0 mm 0.00 in0.0 mm 0.08 in2.0 mm
08:30 AM 51.3°F10.7°C 50.2°F10.1°C 96% 2.1 mph SW3.4 kmh SW 9.5 mph15.3 kmh 30.03 in1016.9 mb 0.00 in0.0 mm 0.00 in0.0 mm 0.08 in2.0 mm
08:45 AM 51.7°F10.9°C 50.6°F10.3°C 96% 2.5 mph WSW4.0 kmh WSW 7.5 mph12.1 kmh 30.02 in1016.6 mb 0.00 in0.0 mm 0.00 in0.0 mm 0.08 in2.0 mm
09:00 AM 52.1°F11.2°C 51.2°F10.7°C 97% 2.2 mph SW3.5 kmh SW 5.6 mph9.0 kmh 30.02 in1016.6 mb 0.00 in0.0 mm 0.00 in0.0 mm 0.08 in2.0 mm
09:15 AM 52.4°F11.3°C 51.6°F10.9°C 97% 1.5 mph WSW2.4 kmh WSW 5.6 mph9.0 kmh 30.02 in1016.6 mb 0.00 in0.0 mm 0.00 in0.0 mm 0.08 in2.0 mm
09:30 AM 52.4°F11.3°C 51.6°F10.9°C 97% 2.5 mph WSW4.0 kmh WSW 11.5 mph18.5 kmh 30.02 in1016.6 mb 0.00 in0.0 mm 0.00 in0.0 mm 0.08 in2.0 mm
09:45 AM 52.4°F11.3°C 51.3°F10.7°C 96% 2.6 mph W4.2 kmh W 7.5 mph12.1 kmh 30.02 in1016.6 mb 0.00 in0.0 mm 0.00 in0.0 mm 0.08 in2.0 mm
10:00 AM 52.4°F11.3°C 51.3°F10.7°C 96% 1.2 mph W1.9 kmh W 5.6 mph9.0 kmh 30.02 in1016.6 mb 0.00 in0.0 mm 0.00 in0.0 mm 0.08 in2.0 mm
10:15 AM 52.4°F11.3°C 51.3°F10.7°C 96% 2.6 mph W4.2 kmh W 7.5 mph12.1 kmh 30.01 in1016.3 mb 0.00 in0.0 mm 0.00 in0.0 mm 0.08 in2.0 mm
10:30 AM 52.2°F11.2°C 51.1°F10.6°C 96% 2.0 mph WNW3.2 kmh WNW 5.6 mph9.0 kmh 30.02 in1016.6 mb 0.00 in0.0 mm 0.00 in0.0 mm 0.08 in2.0 mm
10:45 AM 52.2°F11.2°C 51.4°F10.8°C 97% 1.9 mph WSW3.1 kmh WSW 6.7 mph10.8 kmh 30.01 in1016.3 mb 0.00 in0.0 mm 0.00 in0.0 mm 0.08 in2.0 mm
11:00 AM 52.2°F11.2°C 51.1°F10.6°C 96% 2.1 mph NW3.4 kmh NW 7.5 mph12.1 kmh 30.01 in1016.3 mb 0.00 in0.0 mm 0.00 in0.0 mm 0.08 in2.0 mm
11:15 AM 52.1°F11.2°C 51.0°F10.6°C 96% 1.7 mph NW2.7 kmh NW 4.8 mph7.7 kmh 30.01 in1016.3 mb 0.00 in0.0 mm 0.00 in0.0 mm 0.08 in2.0 mm
11:30 AM 52.1°F11.2°C 51.0°F10.6°C 96% 1.8 mph NW2.9 kmh NW 5.6 mph9.0 kmh 30.01 in1016.3 mb 0.00 in0.0 mm 0.00 in0.0 mm 0.08 in2.0 mm
11:45 AM 52.2°F11.2°C 51.1°F10.6°C 96% 1.5 mph NW2.4 kmh NW 4.8 mph7.7 kmh 30.01 in1016.3 mb 0.01 in0.3 mm 0.04 in1.0 mm 0.09 in2.3 mm
12:00 PM 52.2°F11.2°C 51.1°F10.6°C 96% 2.3 mph NW3.7 kmh NW 7.5 mph12.1 kmh 30.01 in1016.3 mb 0.01 in0.3 mm 0.00 in0.0 mm 0.09 in2.3 mm
12:15 PM 52.2°F11.2°C 51.1°F10.6°C 96% 1.9 mph NNW3.1 kmh NNW 4.8 mph7.7 kmh 30.01 in1016.3 mb 0.01 in0.3 mm 0.00 in0.0 mm 0.09 in2.3 mm
12:30 PM 52.1°F11.2°C 51.0°F10.6°C 96% 2.8 mph WNW4.5 kmh WNW 6.7 mph10.8 kmh 30.02 in1016.6 mb 0.01 in0.3 mm 0.00 in0.0 mm 0.09 in2.3 mm
12:45 PM 51.9°F11.1°C 50.8°F10.4°C 96% 2.0 mph NNW3.2 kmh NNW 6.7 mph10.8 kmh 30.00 in1015.9 mb 0.00 in0.0 mm 0.00 in0.0 mm 0.09 in2.3 mm
01:00 PM 51.9°F11.1°C 50.8°F10.4°C 96% 2.3 mph NW3.7 kmh NW 7.5 mph12.1 kmh 30.01 in1016.3 mb 0.00 in0.0 mm 0.00 in0.0 mm 0.09 in2.3 mm
01:15 PM 51.9°F11.1°C 50.8°F10.4°C 96% 2.1 mph NW3.4 kmh NW 8.7 mph14.0 kmh 30.02 in1016.6 mb 0.00 in0.0 mm 0.00 in0.0 mm 0.09 in2.3 mm
01:30 PM 52.1°F11.2°C 51.0°F10.6°C 96% 2.2 mph NW3.5 kmh NW 6.7 mph10.8 kmh 30.01 in1016.3 mb 0.00 in0.0 mm 0.00 in0.0 mm 0.09 in2.3 mm
01:45 PM 52.1°F11.2°C 51.0°F10.6°C 96% 2.5 mph NW4.0 kmh NW 8.7 mph14.0 kmh 30.01 in1016.3 mb 0.00 in0.0 mm 0.00 in0.0 mm 0.09 in2.3 mm
02:00 PM 52.1°F11.2°C 51.0°F10.6°C 96% 1.8 mph NW2.9 kmh NW 6.7 mph10.8 kmh 30.01 in1016.3 mb 0.00 in0.0 mm 0.00 in0.0 mm 0.09 in2.3 mm
02:15 PM 52.1°F11.2°C 51.0°F10.6°C 96% 2.9 mph N4.7 kmh N 8.7 mph14.0 kmh 30.01 in1016.3 mb 0.00 in0.0 mm 0.00 in0.0 mm 0.09 in2.3 mm
02:30 PM 51.7°F10.9°C 50.6°F10.3°C 96% 2.5 mph NW4.0 kmh NW 7.5 mph12.1 kmh 30.01 in1016.3 mb 0.00 in0.0 mm 0.00 in0.0 mm 0.09 in2.3 mm
02:45 PM 51.9°F11.1°C 51.1°F10.6°C 97% 3.2 mph WNW5.1 kmh WNW 8.7 mph14.0 kmh 30.01 in1016.3 mb 0.00 in0.0 mm 0.00 in0.0 mm 0.09 in2.3 mm
03:00 PM 52.4°F11.3°C 51.6°F10.9°C 97% 2.5 mph NW4.0 kmh NW 7.5 mph12.1 kmh 30.01 in1016.3 mb 0.00 in0.0 mm 0.00 in0.0 mm 0.09 in2.3 mm
03:15 PM 53.3°F11.8°C 52.2°F11.2°C 96% 2.5 mph NW4.0 kmh NW 7.5 mph12.1 kmh 30.00 in1015.9 mb 0.00 in0.0 mm 0.00 in0.0 mm 0.09 in2.3 mm
03:30 PM 54.9°F12.7°C 53.3°F11.8°C 94% 2.9 mph WNW4.7 kmh WNW 8.7 mph14.0 kmh 30.00 in1015.9 mb 0.00 in0.0 mm 0.00 in0.0 mm 0.09 in2.3 mm
03:45 PM 57.6°F14.2°C 54.7°F12.6°C 90% 4.4 mph WNW7.1 kmh WNW 9.5 mph15.3 kmh 30.00 in1015.9 mb 0.00 in0.0 mm 0.00 in0.0 mm 0.09 in2.3 mm
04:00 PM 58.4°F14.7°C 52.9°F11.6°C 82% 3.2 mph NW5.1 kmh NW 9.5 mph15.3 kmh 29.98 in1015.2 mb 0.00 in0.0 mm 0.00 in0.0 mm 0.09 in2.3 mm
04:15 PM 60.5°F15.8°C 53.3°F11.8°C 77% 3.4 mph NW5.5 kmh NW 9.5 mph15.3 kmh 29.98 in1015.2 mb 0.00 in0.0 mm 0.00 in0.0 mm 0.09 in2.3 mm
04:30 PM 59.3°F15.2°C 50.6°F10.3°C 73% 3.5 mph W5.6 kmh W 12.3 mph19.8 kmh 29.98 in1015.2 mb 0.00 in0.0 mm 0.00 in0.0 mm 0.09 in2.3 mm
04:45 PM 58.9°F14.9°C 49.9°F9.9°C 72% 3.9 mph NW6.3 kmh NW 9.5 mph15.3 kmh 29.98 in1015.2 mb 0.00 in0.0 mm 0.00 in0.0 mm 0.09 in2.3 mm
05:00 PM 60.5°F15.8°C 50.7°F10.4°C 70% 3.5 mph NW5.6 kmh NW 9.5 mph15.3 kmh 29.97 in1014.9 mb 0.00 in0.0 mm 0.00 in0.0 mm 0.09 in2.3 mm
05:15 PM 60.2°F15.7°C 50.0°F10.0°C 69% 2.9 mph NNW4.7 kmh NNW 6.7 mph10.8 kmh 29.97 in1014.9 mb 0.00 in0.0 mm 0.00 in0.0 mm 0.09 in2.3 mm
05:30 PM 61.6°F16.4°C 49.7°F9.8°C 65% 3.8 mph WNW6.1 kmh WNW 9.5 mph15.3 kmh 29.97 in1014.9 mb 0.00 in0.0 mm 0.00 in0.0 mm 0.09 in2.3 mm
05:45 PM 62.0°F16.7°C 48.4°F9.1°C 61% 3.7 mph WNW6.0 kmh WNW 11.5 mph18.5 kmh 29.97 in1014.9 mb 0.00 in0.0 mm 0.00 in0.0 mm 0.09 in2.3 mm
06:00 PM 62.0°F16.7°C 48.4°F9.1°C 61% 3.6 mph WNW5.8 kmh WNW 10.3 mph16.6 kmh 29.97 in1014.9 mb 0.00 in0.0 mm 0.00 in0.0 mm 0.09 in2.3 mm
06:15 PM 62.1°F16.7°C 48.1°F8.9°C 60% 2.0 mph WNW3.2 kmh WNW 6.7 mph10.8 kmh 29.98 in1015.2 mb 0.00 in0.0 mm 0.00 in0.0 mm 0.09 in2.3 mm
06:30 PM 62.0°F16.7°C 47.9°F8.8°C 60% 2.7 mph NW4.3 kmh NW 8.7 mph14.0 kmh 29.98 in1015.2 mb 0.00 in0.0 mm 0.00 in0.0 mm 0.09 in2.3 mm
06:45 PM 62.0°F16.7°C 47.9°F8.8°C 60% 2.6 mph WSW4.2 kmh WSW 11.5 mph18.5 kmh 29.97 in1014.9 mb 0.00 in0.0 mm 0.00 in0.0 mm 0.09 in2.3 mm
07:00 PM 61.8°F16.6°C 47.8°F8.8°C 60% 1.8 mph WNW2.9 kmh WNW 6.7 mph10.8 kmh 29.97 in1014.9 mb 0.00 in0.0 mm 0.00 in0.0 mm 0.09 in2.3 mm
07:15 PM 61.1°F16.2°C 47.5°F8.6°C 61% 0.8 mph W1.3 kmh W 6.7 mph10.8 kmh 29.97 in1014.9 mb 0.00 in0.0 mm 0.00 in0.0 mm 0.09 in2.3 mm
07:30 PM 59.8°F15.4°C 46.8°F8.2°C 62% 1.1 mph W1.8 kmh W 5.6 mph9.0 kmh 29.97 in1014.9 mb 0.00 in0.0 mm 0.00 in0.0 mm 0.09 in2.3 mm
07:45 PM 58.5°F14.7°C 46.8°F8.2°C 65% 0.3 mph SW0.5 kmh SW 3.9 mph6.3 kmh 29.97 in1014.9 mb 0.00 in0.0 mm 0.00 in0.0 mm 0.09 in2.3 mm
08:00 PM 57.5°F14.2°C 47.0°F8.3°C 68% 1.2 mph SSW1.9 kmh SSW 3.9 mph6.3 kmh 29.97 in1014.9 mb 0.00 in0.0 mm 0.00 in0.0 mm 0.09 in2.3 mm
08:15 PM 56.7°F13.7°C 47.1°F8.4°C 70% 1.5 mph S2.4 kmh S 3.9 mph6.3 kmh 29.98 in1015.2 mb 0.00 in0.0 mm 0.00 in0.0 mm 0.09 in2.3 mm
08:30 PM 56.6°F13.7°C 46.9°F8.3°C 70% 2.3 mph S3.7 kmh S 5.6 mph9.0 kmh 29.98 in1015.2 mb 0.00 in0.0 mm 0.00 in0.0 mm 0.09 in2.3 mm
08:45 PM 56.6°F13.7°C 46.9°F8.3°C 70% 2.2 mph S3.5 kmh S 5.6 mph9.0 kmh 29.99 in1015.6 mb 0.00 in0.0 mm 0.00 in0.0 mm 0.09 in2.3 mm
09:00 PM 56.4°F13.6°C 46.0°F7.8°C 68% 1.4 mph SSE2.3 kmh SSE 7.5 mph12.1 kmh 29.99 in1015.6 mb 0.00 in0.0 mm 0.00 in0.0 mm 0.09 in2.3 mm
09:15 PM 56.6°F13.7°C 46.1°F7.8°C 68% 2.3 mph SSW3.7 kmh SSW 5.6 mph9.0 kmh 29.99 in1015.6 mb 0.00 in0.0 mm 0.00 in0.0 mm 0.09 in2.3 mm
09:30 PM 56.9°F13.8°C 46.5°F8.1°C 68% 3.6 mph SSW5.8 kmh SSW 6.7 mph10.8 kmh 30.00 in1015.9 mb 0.00 in0.0 mm 0.00 in0.0 mm 0.09 in2.3 mm
09:45 PM 57.1°F13.9°C 46.7°F8.2°C 68% 2.8 mph SW4.5 kmh SW 8.7 mph14.0 kmh 30.00 in1015.9 mb 0.00 in0.0 mm 0.00 in0.0 mm 0.09 in2.3 mm
10:00 PM 56.9°F13.8°C 46.9°F8.3°C 69% 3.3 mph SW5.3 kmh SW 8.7 mph14.0 kmh 30.00 in1015.9 mb 0.00 in0.0 mm 0.00 in0.0 mm 0.09 in2.3 mm
10:15 PM 56.7°F13.7°C 46.7°F8.2°C 69% 3.1 mph SW5.0 kmh SW 9.5 mph15.3 kmh 30.00 in1015.9 mb 0.00 in0.0 mm 0.00 in0.0 mm 0.09 in2.3 mm
10:30 PM 56.6°F13.7°C 46.9°F8.3°C 70% 3.1 mph SSW5.0 kmh SSW 8.7 mph14.0 kmh 30.00 in1015.9 mb 0.00 in0.0 mm 0.00 in0.0 mm 0.09 in2.3 mm
10:45 PM 56.7°F13.7°C 47.5°F8.6°C 71% 2.7 mph SW4.3 kmh SW 7.5 mph12.1 kmh 30.00 in1015.9 mb 0.00 in0.0 mm 0.00 in0.0 mm 0.09 in2.3 mm
11:00 PM 56.6°F13.7°C 47.3°F8.5°C 71% 2.9 mph S4.7 kmh S 9.5 mph15.3 kmh 30.00 in1015.9 mb 0.00 in0.0 mm 0.00 in0.0 mm 0.09 in2.3 mm
11:15 PM 56.4°F13.6°C 47.1°F8.4°C 71% 3.0 mph SSW4.8 kmh SSW 7.5 mph12.1 kmh 30.00 in1015.9 mb 0.00 in0.0 mm 0.00 in0.0 mm 0.09 in2.3 mm
11:30 PM 56.0°F13.3°C 47.1°F8.4°C 72% 1.4 mph SW2.3 kmh SW 4.8 mph7.7 kmh 30.00 in1015.9 mb 0.00 in0.0 mm 0.00 in0.0 mm 0.09 in2.3 mm
11:45 PM 55.5°F13.1°C 46.6°F8.1°C 72% 1.4 mph SW2.3 kmh SW 4.8 mph7.7 kmh 30.00 in1015.9 mb 0.00 in0.0 mm 0.00 in0.0 mm 0.09 in2.3 mm